Flight Track Log - Related Links

Times and Time Zones

All times are in EDT time to prevent confusion due to time zone crossing. See the ASQ4577 flight status page for this flight to view local times or setup timezone preferences in your user account.

Time Position Orientation Groundspeed Altitude Reporting Facility
EDT Latitude Longitude Course Direction KTS MPH feet Rate Location/Type
Sun 08:23:17 PM 41.4172 -81.8375 21° North 165 190 1,600  Level Cleveland Center
Sun 08:24:06 PM 41.4592 -81.8161 21° North 213 245 2,900 1,672 Climbing Cleveland Center
Sun 08:25:19 PM 41.5286 -81.7592 32° Northeast 277 319 5,000 2,075 Climbing Cleveland Center
Sun 08:26:19 PM 41.5897 -81.6936 39° Northeast 277 319 7,500 2,450 Climbing Cleveland Center
Sun 08:27:19 PM 41.6572 -81.6169 40° Northeast 277 319 9,900 1,750 Climbing Cleveland Center
Sun 08:28:19 PM 41.7267 -81.5431 38° Northeast 299 344 11,000 1,100 Climbing Cleveland Center
Sun 08:29:19 PM 41.8067 -81.4550 39° Northeast 335 386 12,100 1,400 Climbing Cleveland Center
Sun 08:30:19 PM 41.8719 -81.3444 52° Northeast 363 418 13,800 1,700 Climbing Cleveland Center
Sun 08:31:19 PM 41.9372 -81.2336 52° Northeast 369 425 15,500 1,650 Climbing Cleveland Center
Sun 08:32:19 PM 41.9961 -81.1167 56° Northeast 375 432 17,100 1,500 Climbing Cleveland Center
Sun 08:33:19 PM 42.0364 -80.9886 67° East 370 426 18,500 1,450 Climbing Cleveland Center
Sun 08:34:19 PM 42.0764 -80.8544 68° East 376 433 20,000 1,350 Climbing Cleveland Center
Sun 08:35:19 PM 42.0933 -80.7258 80° East 376 433 21,200 1,350 Climbing Cleveland Center
Sun 08:36:19 PM 42.1122 -80.5803 80° East 385 443 22,700 1,350 Climbing Cleveland Center
Sun 08:37:19 PM 42.1308 -80.4347 80° East 393 452 23,900 1,250 Climbing Cleveland Center
Sun 08:38:19 PM 42.1492 -80.2836 81° East 393 452 25,200 1,200 Climbing Cleveland Center
Sun 08:39:19 PM 42.1675 -80.1350 81° East 403 464 26,300 1,150 Climbing Cleveland Center
Sun 08:40:19 PM 42.1856 -79.9778 81° East 410 472 27,500 1,050 Climbing Cleveland Center
Sun 08:41:19 PM 42.2056 -79.8181 80° East 415 478 28,400 950 Climbing Cleveland Center
Sun 08:42:19 PM 42.2231 -79.6581 82° East 426 490 29,400 1,000 Climbing Cleveland Center
Sun 08:43:19 PM 42.2425 -79.4950 81° East 431 496 30,400 800 Climbing Cleveland Center
Sun 08:44:19 PM 42.2617 -79.3264 81° East 437 503 31,000 300 Climbing Cleveland Center
Sun 08:45:19 PM 42.2803 -79.1492 82° East 456 525 31,000  Level Cleveland Center
Sun 08:46:19 PM 42.3031 -78.9633 81° East 483 556 31,000  Level Cleveland Center
Sun 08:47:19 PM 42.3250 -78.7633 81° East 488 562 31,000  Level Cleveland Center
Sun 08:48:19 PM 42.3447 -78.5772 82° East 488 562 31,000  Level Cleveland Center
Sun 08:49:19 PM 42.3625 -78.3969 82° East 488 562 31,000  Level Cleveland Center
Sun 08:50:19 PM 42.3817 -78.2078 82° East 494 568 31,000  Level Cleveland Center
Sun 08:51:19 PM 42.4006 -78.0189 82° East 500 575 31,000  Level Cleveland Center
Sun 08:52:19 PM 42.4192 -77.8325 82° East 505 581 31,000  Level Cleveland Center
Sun 08:53:19 PM 42.4375 -77.6542 82° East 505 581 31,000 -413 Level Cleveland Center
Sun 08:54:59 PM 42.4678 -77.3358 83° East 529 609 29,900 -750 Descending Boston Center
Sun 08:55:59 PM 42.4864 -77.1428 82° East 529 609 29,000 -450 Descending Boston Center
Sun 08:56:59 PM 42.5044 -76.9525 83° East 518 596 29,000  Level Boston Center
Sun 08:57:59 PM 42.5211 -76.7394 84° East 512 589 29,000  Level Boston Center
Sun 08:58:59 PM 42.5386 -76.5492 83° East 512 589 29,000  Level Boston Center
Sun 08:59:59 PM 42.5558 -76.3611 83° East 512 589 29,000  Level Boston Center
Sun 09:00:59 PM 42.5697 -76.1900 84° East 512 589 29,000  Level Boston Center
Sun 09:01:59 PM 42.5864 -75.9964 83° East 512 589 29,000 -750 Level Boston Center
Sun 09:02:59 PM 42.6028 -75.8056 83° East 512 589 27,500 -1,750 Descending Boston Center
Sun 09:03:59 PM 42.6167 -75.6144 84° East 512 589 25,500 -2,350 Descending Boston Center
Sun 09:04:59 PM 42.6344 -75.4147 83° East 506 582 22,800 -2,350 Descending Boston Center
Sun 09:05:59 PM 42.6422 -75.2711 86° East 493 567 20,800 -2,200 Descending Boston Center
Sun 09:06:59 PM 42.6589 -75.1025 82° East 468 539 18,400 -2,547 Descending Boston Center
Sun 09:07:45 PM 42.6689 -74.9419 85° East 451 519 16,300 -2,602 Descending Boston Center
Sun 09:08:52 PM 42.6811 -74.7617 85° East 415 478 13,500 -2,362 Descending Boston Center
Sun 09:09:52 PM 42.6922 -74.6125 84° East 383 441 11,300 -1,388 Descending Boston Center
Sun 09:10:53 PM 42.6928 -74.4769 90° East 355 409 10,700 -836 Descending Boston Center
Sun 09:11:54 PM 42.6717 -74.3631 104° East 290 334 9,600 -1,000 Descending Boston Center
Sun 09:11:59 PM 42.6717 -74.3631 104° East 325 374 9,600 -1,569 Level Boston Center
Sun 09:12:59 PM 42.6464 -74.2494 107° East 291 335 7,900 -1,655 Descending Boston Center
Sun 09:13:55 PM 42.6272 -74.1558 106° East 262 302 6,400 -1,500 Descending Boston Center
Sun 09:14:59 PM 42.6117 -74.0736 104° East 250 288 4,900 -1,355 Descending Boston Center
Sun 09:15:59 PM 42.5922 -73.9658 104° East 257 296 3,600 -850 Descending Boston Center
Sun 09:16:59 PM 42.5789 -73.8808 102° East 251 289 3,200 -655 Descending Boston Center
Sun 09:17:58 PM 42.6108 -73.8225 53° Northeast 207 238 2,300 -706 Descending Boston Center
Sun 09:18:58 PM 42.6611 -73.8036 15° North 170 196 1,800 -500 Descending Boston Center

Login

Don't have an account? Register now (free) for customized features, flight alerts, and more!